sensor_id;sensor_type;location;lat;lon;timestamp;P1;durP1;ratioP1;P2;durP2;ratioP2
42518;SDS011;28147;47.520;18.920;2023-08-01T00:01:49;2.20;;;0.85;;
42518;SDS011;28147;47.520;18.920;2023-08-01T00:04:15;3.15;;;1.48;;
42518;SDS011;28147;47.520;18.920;2023-08-01T00:06:41;1.63;;;0.90;;
42518;SDS011;28147;47.520;18.920;2023-08-01T00:09:07;3.40;;;1.00;;
42518;SDS011;28147;47.520;18.920;2023-08-01T00:11:32;2.38;;;0.80;;
42518;SDS011;28147;47.520;18.920;2023-08-01T00:13:58;2.83;;;1.10;;
42518;SDS011;28147;47.520;18.920;2023-08-01T00:16:23;3.92;;;1.10;;
42518;SDS011;28147;47.520;18.920;2023-08-01T00:18:49;1.95;;;1.02;;
42518;SDS011;28147;47.520;18.920;2023-08-01T00:21:14;2.78;;;1.10;;
42518;SDS011;28147;47.520;18.920;2023-08-01T00:23:40;2.55;;;1.00;;
42518;SDS011;28147;47.520;18.920;2023-08-01T00:26:05;2.45;;;1.23;;
42518;SDS011;28147;47.520;18.920;2023-08-01T00:28:31;1.55;;;1.00;;
42518;SDS011;28147;47.520;18.920;2023-08-01T00:31:06;2.33;;;1.08;;
42518;SDS011;28147;47.520;18.920;2023-08-01T00:33:34;1.52;;;0.90;;
42518;SDS011;28147;47.520;18.920;2023-08-01T00:35:59;4.20;;;1.52;;
42518;SDS011;28147;47.520;18.920;2023-08-01T00:38:25;2.88;;;1.10;;
42518;SDS011;28147;47.520;18.920;2023-08-01T00:40:51;2.38;;;1.10;;
42518;SDS011;28147;47.520;18.920;2023-08-01T00:43:16;2.90;;;1.23;;
42518;SDS011;28147;47.520;18.920;2023-08-01T00:45:41;3.08;;;1.20;;
42518;SDS011;28147;47.520;18.920;2023-08-01T00:48:07;3.10;;;0.90;;
42518;SDS011;28147;47.520;18.920;2023-08-01T00:50:33;2.85;;;1.20;;
42518;SDS011;28147;47.520;18.920;2023-08-01T00:52:59;3.38;;;1.40;;
42518;SDS011;28147;47.520;18.920;2023-08-01T00:55:26;2.03;;;1.10;;
42518;SDS011;28147;47.520;18.920;2023-08-01T00:57:54;2.95;;;1.10;;
42518;SDS011;28147;47.520;18.920;2023-08-01T01:00:19;2.92;;;1.10;;
42518;SDS011;28147;47.520;18.920;2023-08-01T01:02:45;3.03;;;1.40;;
42518;SDS011;28147;47.520;18.920;2023-08-01T01:05:11;3.15;;;1.48;;
42518;SDS011;28147;47.520;18.920;2023-08-01T01:07:39;2.15;;;1.00;;
42518;SDS011;28147;47.520;18.920;2023-08-01T01:10:05;2.83;;;1.23;;
42518;SDS011;28147;47.520;18.920;2023-08-01T01:12:30;2.58;;;1.20;;
42518;SDS011;28147;47.520;18.920;2023-08-01T01:14:56;2.75;;;1.15;;
42518;SDS011;28147;47.520;18.920;2023-08-01T01:17:21;2.67;;;1.10;;
42518;SDS011;28147;47.520;18.920;2023-08-01T01:19:47;2.58;;;1.17;;
42518;SDS011;28147;47.520;18.920;2023-08-01T01:22:15;2.63;;;1.13;;
42518;SDS011;28147;47.520;18.920;2023-08-01T01:24:41;3.22;;;1.50;;
42518;SDS011;28147;47.520;18.920;2023-08-01T01:27:07;1.80;;;0.93;;
42518;SDS011;28147;47.520;18.920;2023-08-01T01:29:34;2.53;;;1.10;;
42518;SDS011;28147;47.520;18.920;2023-08-01T01:32:00;3.10;;;1.00;;
42518;SDS011;28147;47.520;18.920;2023-08-01T01:34:29;1.88;;;1.05;;
42518;SDS011;28147;47.520;18.920;2023-08-01T01:36:55;3.03;;;1.77;;
42518;SDS011;28147;47.520;18.920;2023-08-01T01:39:20;3.50;;;1.30;;
42518;SDS011;28147;47.520;18.920;2023-08-01T01:41:46;4.43;;;1.42;;
42518;SDS011;28147;47.520;18.920;2023-08-01T01:44:11;2.08;;;1.05;;
42518;SDS011;28147;47.520;18.920;2023-08-01T01:46:37;3.85;;;1.35;;
42518;SDS011;28147;47.520;18.920;2023-08-01T01:49:02;4.20;;;1.67;;
42518;SDS011;28147;47.520;18.920;2023-08-01T01:51:28;2.85;;;1.17;;
42518;SDS011;28147;47.520;18.920;2023-08-01T01:53:56;2.53;;;0.93;;
42518;SDS011;28147;47.520;18.920;2023-08-01T01:56:21;2.85;;;1.38;;
42518;SDS011;28147;47.520;18.920;2023-08-01T01:58:47;1.73;;;1.27;;
42518;SDS011;28147;47.520;18.920;2023-08-01T02:01:12;3.53;;;1.40;;
42518;SDS011;28147;47.520;18.920;2023-08-01T02:03:38;2.83;;;1.33;;
42518;SDS011;28147;47.520;18.920;2023-08-01T02:06:03;2.78;;;1.00;;
42518;SDS011;28147;47.520;18.920;2023-08-01T02:08:29;3.47;;;1.42;;
42518;SDS011;28147;47.520;18.920;2023-08-01T02:10:55;3.25;;;1.50;;
42518;SDS011;28147;47.520;18.920;2023-08-01T02:13:23;2.50;;;1.20;;
42518;SDS011;28147;47.520;18.920;2023-08-01T02:15:52;3.10;;;1.55;;
42518;SDS011;28147;47.520;18.920;2023-08-01T02:18:18;2.85;;;1.38;;
42518;SDS011;28147;47.520;18.920;2023-08-01T02:20:43;2.55;;;1.40;;
42518;SDS011;28147;47.520;18.920;2023-08-01T02:23:08;2.83;;;1.10;;
42518;SDS011;28147;47.520;18.920;2023-08-01T02:25:38;2.40;;;1.30;;
42518;SDS011;28147;47.520;18.920;2023-08-01T02:28:04;2.95;;;1.58;;
42518;SDS011;28147;47.520;18.920;2023-08-01T02:30:30;2.83;;;1.70;;
42518;SDS011;28147;47.520;18.920;2023-08-01T02:32:55;3.30;;;1.10;;
42518;SDS011;28147;47.520;18.920;2023-08-01T02:35:21;2.97;;;1.50;;
42518;SDS011;28147;47.520;18.920;2023-08-01T02:37:46;3.05;;;1.20;;
42518;SDS011;28147;47.520;18.920;2023-08-01T02:40:12;2.72;;;1.20;;
42518;SDS011;28147;47.520;18.920;2023-08-01T02:42:37;2.28;;;1.40;;
42518;SDS011;28147;47.520;18.920;2023-08-01T02:45:03;2.83;;;1.40;;
42518;SDS011;28147;47.520;18.920;2023-08-01T02:47:29;3.72;;;1.58;;
42518;SDS011;28147;47.520;18.920;2023-08-01T02:49:54;2.70;;;1.20;;
42518;SDS011;28147;47.520;18.920;2023-08-01T02:52:19;4.93;;;1.50;;
42518;SDS011;28147;47.520;18.920;2023-08-01T02:54:45;2.17;;;1.20;;
42518;SDS011;28147;47.520;18.920;2023-08-01T02:57:10;3.88;;;1.50;;
42518;SDS011;28147;47.520;18.920;2023-08-01T02:59:35;2.75;;;1.27;;
42518;SDS011;28147;47.520;18.920;2023-08-01T03:02:01;4.22;;;1.67;;
42518;SDS011;28147;47.520;18.920;2023-08-01T03:04:27;2.20;;;1.20;;
42518;SDS011;28147;47.520;18.920;2023-08-01T03:06:52;2.38;;;1.25;;
42518;SDS011;28147;47.520;18.920;2023-08-01T03:09:17;2.90;;;1.30;;
42518;SDS011;28147;47.520;18.920;2023-08-01T03:11:43;1.83;;;0.98;;
42518;SDS011;28147;47.520;18.920;2023-08-01T03:14:08;4.35;;;1.60;;
42518;SDS011;28147;47.520;18.920;2023-08-01T03:16:34;2.83;;;1.30;;
42518;SDS011;28147;47.520;18.920;2023-08-01T03:18:59;2.22;;;1.20;;
42518;SDS011;28147;47.520;18.920;2023-08-01T03:21:30;2.53;;;1.30;;
42518;SDS011;28147;47.520;18.920;2023-08-01T03:23:59;3.08;;;1.42;;
42518;SDS011;28147;47.520;18.920;2023-08-01T03:26:25;2.22;;;1.17;;
42518;SDS011;28147;47.520;18.920;2023-08-01T03:28:53;3.63;;;1.38;;
42518;SDS011;28147;47.520;18.920;2023-08-01T03:31:19;3.08;;;1.30;;
42518;SDS011;28147;47.520;18.920;2023-08-01T03:33:45;2.58;;;1.20;;
42518;SDS011;28147;47.520;18.920;2023-08-01T03:36:10;2.92;;;1.35;;
42518;SDS011;28147;47.520;18.920;2023-08-01T03:38:36;2.63;;;1.35;;
42518;SDS011;28147;47.520;18.920;2023-08-01T03:41:01;2.28;;;1.17;;
42518;SDS011;28147;47.520;18.920;2023-08-01T03:43:29;4.75;;;1.45;;
42518;SDS011;28147;47.520;18.920;2023-08-01T03:45:54;2.85;;;1.70;;
42518;SDS011;28147;47.520;18.920;2023-08-01T03:48:19;2.83;;;1.48;;
42518;SDS011;28147;47.520;18.920;2023-08-01T03:50:45;2.83;;;1.20;;
42518;SDS011;28147;47.520;18.920;2023-08-01T03:53:10;3.08;;;1.38;;
42518;SDS011;28147;47.520;18.920;2023-08-01T03:55:36;4.85;;;1.60;;
42518;SDS011;28147;47.520;18.920;2023-08-01T03:58:02;4.85;;;1.65;;
42518;SDS011;28147;47.520;18.920;2023-08-01T04:00:27;1.85;;;1.20;;
42518;SDS011;28147;47.520;18.920;2023-08-01T04:02:57;2.58;;;1.35;;
42518;SDS011;28147;47.520;18.920;2023-08-01T04:05:26;2.83;;;1.20;;
42518;SDS011;28147;47.520;18.920;2023-08-01T04:07:52;2.35;;;1.10;;
42518;SDS011;28147;47.520;18.920;2023-08-01T04:10:21;2.63;;;1.27;;
42518;SDS011;28147;47.520;18.920;2023-08-01T04:12:47;5.57;;;2.42;;
42518;SDS011;28147;47.520;18.920;2023-08-01T04:15:12;2.80;;;1.73;;
42518;SDS011;28147;47.520;18.920;2023-08-01T04:17:38;3.25;;;1.40;;
42518;SDS011;28147;47.520;18.920;2023-08-01T04:20:03;1.98;;;1.10;;
42518;SDS011;28147;47.520;18.920;2023-08-01T04:22:29;2.20;;;1.27;;
42518;SDS011;28147;47.520;18.920;2023-08-01T04:24:55;4.13;;;1.30;;
42518;SDS011;28147;47.520;18.920;2023-08-01T04:27:20;4.68;;;1.30;;
42518;SDS011;28147;47.520;18.920;2023-08-01T04:29:46;3.30;;;1.20;;
42518;SDS011;28147;47.520;18.920;2023-08-01T04:32:11;3.17;;;1.08;;
42518;SDS011;28147;47.520;18.920;2023-08-01T04:34:39;3.08;;;1.30;;
42518;SDS011;28147;47.520;18.920;2023-08-01T04:37:04;2.63;;;1.10;;
42518;SDS011;28147;47.520;18.920;2023-08-01T04:39:30;2.65;;;1.48;;
42518;SDS011;28147;47.520;18.920;2023-08-01T04:41:55;4.32;;;1.42;;
42518;SDS011;28147;47.520;18.920;2023-08-01T04:44:20;3.10;;;1.80;;
42518;SDS011;28147;47.520;18.920;2023-08-01T04:46:47;4.22;;;1.33;;
42518;SDS011;28147;47.520;18.920;2023-08-01T04:49:13;3.00;;;1.08;;
42518;SDS011;28147;47.520;18.920;2023-08-01T04:51:38;2.47;;;1.55;;
42518;SDS011;28147;47.520;18.920;2023-08-01T04:54:03;3.28;;;1.50;;
42518;SDS011;28147;47.520;18.920;2023-08-01T04:56:29;2.22;;;1.10;;
42518;SDS011;28147;47.520;18.920;2023-08-01T04:58:54;3.15;;;1.30;;
42518;SDS011;28147;47.520;18.920;2023-08-01T05:01:19;2.58;;;1.38;;
42518;SDS011;28147;47.520;18.920;2023-08-01T05:03:45;2.60;;;1.35;;
42518;SDS011;28147;47.520;18.920;2023-08-01T05:06:10;4.13;;;1.67;;
42518;SDS011;28147;47.520;18.920;2023-08-01T05:08:36;2.92;;;1.83;;
42518;SDS011;28147;47.520;18.920;2023-08-01T05:11:01;2.95;;;1.48;;
42518;SDS011;28147;47.520;18.920;2023-08-01T05:13:26;3.05;;;1.42;;
42518;SDS011;28147;47.520;18.920;2023-08-01T05:15:52;3.45;;;1.58;;
42518;SDS011;28147;47.520;18.920;2023-08-01T05:18:17;2.28;;;1.30;;
42518;SDS011;28147;47.520;18.920;2023-08-01T05:20:43;3.35;;;1.20;;
42518;SDS011;28147;47.520;18.920;2023-08-01T05:23:08;1.98;;;1.13;;
42518;SDS011;28147;47.520;18.920;2023-08-01T05:25:34;4.35;;;1.60;;
42518;SDS011;28147;47.520;18.920;2023-08-01T05:27:59;3.45;;;1.63;;
42518;SDS011;28147;47.520;18.920;2023-08-01T05:30:25;2.55;;;1.33;;
42518;SDS011;28147;47.520;18.920;2023-08-01T05:32:50;4.20;;;1.52;;
42518;SDS011;28147;47.520;18.920;2023-08-01T05:35:17;2.97;;;1.40;;
42518;SDS011;28147;47.520;18.920;2023-08-01T05:37:43;3.78;;;1.70;;
42518;SDS011;28147;47.520;18.920;2023-08-01T05:40:08;2.72;;;1.48;;
42518;SDS011;28147;47.520;18.920;2023-08-01T05:42:34;5.20;;;2.08;;
42518;SDS011;28147;47.520;18.920;2023-08-01T05:45:00;2.50;;;1.50;;
42518;SDS011;28147;47.520;18.920;2023-08-01T05:47:25;2.13;;;1.20;;
42518;SDS011;28147;47.520;18.920;2023-08-01T05:49:51;4.22;;;1.50;;
42518;SDS011;28147;47.520;18.920;2023-08-01T05:52:16;2.80;;;1.60;;
42518;SDS011;28147;47.520;18.920;2023-08-01T05:54:41;3.35;;;1.67;;
42518;SDS011;28147;47.520;18.920;2023-08-01T05:57:07;4.68;;;1.70;;
42518;SDS011;28147;47.520;18.920;2023-08-01T05:59:32;3.03;;;1.75;;
42518;SDS011;28147;47.520;18.920;2023-08-01T06:01:58;3.60;;;1.70;;
42518;SDS011;28147;47.520;18.920;2023-08-01T06:04:23;3.90;;;1.65;;
42518;SDS011;28147;47.520;18.920;2023-08-01T06:06:49;3.50;;;1.60;;
42518;SDS011;28147;47.520;18.920;2023-08-01T06:09:14;2.97;;;1.63;;
42518;SDS011;28147;47.520;18.920;2023-08-01T06:11:40;2.78;;;1.50;;
42518;SDS011;28147;47.520;18.920;2023-08-01T06:14:06;3.28;;;1.40;;
42518;SDS011;28147;47.520;18.920;2023-08-01T06:16:31;2.88;;;1.40;;
42518;SDS011;28147;47.520;18.920;2023-08-01T06:18:57;3.60;;;1.45;;
42518;SDS011;28147;47.520;18.920;2023-08-01T06:21:23;3.15;;;1.90;;
42518;SDS011;28147;47.520;18.920;2023-08-01T06:23:48;3.75;;;1.80;;
42518;SDS011;28147;47.520;18.920;2023-08-01T06:26:14;2.70;;;1.55;;
42518;SDS011;28147;47.520;18.920;2023-08-01T06:28:40;3.63;;;1.70;;
42518;SDS011;28147;47.520;18.920;2023-08-01T06:31:06;3.85;;;1.63;;
42518;SDS011;28147;47.520;18.920;2023-08-01T06:33:31;3.75;;;1.60;;
42518;SDS011;28147;47.520;18.920;2023-08-01T06:35:57;5.80;;;1.70;;
42518;SDS011;28147;47.520;18.920;2023-08-01T06:38:22;4.15;;;1.75;;
42518;SDS011;28147;47.520;18.920;2023-08-01T06:40:48;3.92;;;1.70;;
42518;SDS011;28147;47.520;18.920;2023-08-01T06:43:13;2.92;;;1.73;;
42518;SDS011;28147;47.520;18.920;2023-08-01T06:45:38;3.58;;;1.35;;
42518;SDS011;28147;47.520;18.920;2023-08-01T06:48:04;4.50;;;2.30;;
42518;SDS011;28147;47.520;18.920;2023-08-01T06:50:29;3.30;;;1.77;;
42518;SDS011;28147;47.520;18.920;2023-08-01T06:52:58;3.80;;;1.67;;
42518;SDS011;28147;47.520;18.920;2023-08-01T06:55:23;4.15;;;1.85;;
42518;SDS011;28147;47.520;18.920;2023-08-01T06:57:48;5.93;;;1.60;;
42518;SDS011;28147;47.520;18.920;2023-08-01T07:00:14;3.60;;;1.55;;
42518;SDS011;28147;47.520;18.920;2023-08-01T07:02:39;3.15;;;1.63;;
42518;SDS011;28147;47.520;18.920;2023-08-01T07:05:05;3.65;;;1.63;;
42518;SDS011;28147;47.520;18.920;2023-08-01T07:07:30;3.53;;;1.73;;
42518;SDS011;28147;47.520;18.920;2023-08-01T07:09:56;3.72;;;1.52;;
42518;SDS011;28147;47.520;18.920;2023-08-01T07:12:21;4.80;;;1.95;;
42518;SDS011;28147;47.520;18.920;2023-08-01T07:14:47;3.92;;;1.70;;
42518;SDS011;28147;47.520;18.920;2023-08-01T07:17:12;4.18;;;1.52;;
42518;SDS011;28147;47.520;18.920;2023-08-01T07:19:38;4.75;;;1.70;;
42518;SDS011;28147;47.520;18.920;2023-08-01T07:22:03;3.67;;;1.92;;
42518;SDS011;28147;47.520;18.920;2023-08-01T07:24:29;5.30;;;1.63;;
42518;SDS011;28147;47.520;18.920;2023-08-01T07:26:54;3.75;;;1.55;;
42518;SDS011;28147;47.520;18.920;2023-08-01T07:29:19;3.72;;;1.80;;
42518;SDS011;28147;47.520;18.920;2023-08-01T07:31:45;4.78;;;1.83;;
42518;SDS011;28147;47.520;18.920;2023-08-01T07:34:11;4.32;;;1.77;;
42518;SDS011;28147;47.520;18.920;2023-08-01T07:36:37;7.25;;;1.98;;
42518;SDS011;28147;47.520;18.920;2023-08-01T07:39:03;3.80;;;1.40;;
42518;SDS011;28147;47.520;18.920;2023-08-01T07:41:29;3.47;;;2.00;;
42518;SDS011;28147;47.520;18.920;2023-08-01T07:43:54;4.95;;;2.47;;
42518;SDS011;28147;47.520;18.920;2023-08-01T07:46:20;3.85;;;1.98;;
42518;SDS011;28147;47.520;18.920;2023-08-01T07:48:45;4.00;;;2.28;;
42518;SDS011;28147;47.520;18.920;2023-08-01T07:51:11;5.60;;;2.38;;
42518;SDS011;28147;47.520;18.920;2023-08-01T07:53:36;5.57;;;2.60;;
42518;SDS011;28147;47.520;18.920;2023-08-01T07:56:02;3.90;;;2.08;;
42518;SDS011;28147;47.520;18.920;2023-08-01T07:58:28;5.20;;;2.35;;
42518;SDS011;28147;47.520;18.920;2023-08-01T08:00:54;5.65;;;2.65;;
42518;SDS011;28147;47.520;18.920;2023-08-01T08:03:20;6.20;;;3.08;;
42518;SDS011;28147;47.520;18.920;2023-08-01T08:05:47;5.63;;;2.40;;
42518;SDS011;28147;47.520;18.920;2023-08-01T08:08:13;6.03;;;2.90;;
42518;SDS011;28147;47.520;18.920;2023-08-01T08:10:39;7.55;;;2.60;;
42518;SDS011;28147;47.520;18.920;2023-08-01T08:13:04;6.70;;;2.33;;
42518;SDS011;28147;47.520;18.920;2023-08-01T08:15:30;4.40;;;2.15;;
42518;SDS011;28147;47.520;18.920;2023-08-01T08:20:26;6.25;;;2.30;;
42518;SDS011;28147;47.520;18.920;2023-08-01T08:22:51;4.07;;;2.22;;
42518;SDS011;28147;47.520;18.920;2023-08-01T08:25:17;5.32;;;2.33;;
42518;SDS011;28147;47.520;18.920;2023-08-01T08:27:42;4.60;;;2.30;;
42518;SDS011;28147;47.520;18.920;2023-08-01T08:30:08;3.95;;;1.90;;
42518;SDS011;28147;47.520;18.920;2023-08-01T08:32:34;4.63;;;2.33;;
42518;SDS011;28147;47.520;18.920;2023-08-01T08:35:00;6.90;;;2.55;;
42518;SDS011;28147;47.520;18.920;2023-08-01T08:37:26;4.07;;;2.05;;
42518;SDS011;28147;47.520;18.920;2023-08-01T08:39:51;4.30;;;2.25;;
42518;SDS011;28147;47.520;18.920;2023-08-01T08:42:18;3.92;;;2.10;;
42518;SDS011;28147;47.520;18.920;2023-08-01T08:44:44;6.70;;;2.40;;
42518;SDS011;28147;47.520;18.920;2023-08-01T08:47:13;3.45;;;1.95;;
42518;SDS011;28147;47.520;18.920;2023-08-01T08:49:44;6.93;;;2.58;;
42518;SDS011;28147;47.520;18.920;2023-08-01T08:52:10;5.45;;;2.53;;
42518;SDS011;28147;47.520;18.920;2023-08-01T08:54:36;6.57;;;2.67;;
42518;SDS011;28147;47.520;18.920;2023-08-01T08:57:04;8.38;;;2.40;;
42518;SDS011;28147;47.520;18.920;2023-08-01T08:59:31;6.43;;;2.25;;
42518;SDS011;28147;47.520;18.920;2023-08-01T09:01:58;3.63;;;2.00;;
42518;SDS011;28147;47.520;18.920;2023-08-01T09:04:26;5.93;;;2.40;;
42518;SDS011;28147;47.520;18.920;2023-08-01T09:06:52;3.85;;;2.00;;
42518;SDS011;28147;47.520;18.920;2023-08-01T09:09:22;4.25;;;2.00;;
42518;SDS011;28147;47.520;18.920;2023-08-01T09:11:52;4.40;;;2.40;;
42518;SDS011;28147;47.520;18.920;2023-08-01T09:14:18;7.28;;;1.90;;
42518;SDS011;28147;47.520;18.920;2023-08-01T09:16:44;4.55;;;1.35;;
42518;SDS011;28147;47.520;18.920;2023-08-01T09:19:15;3.65;;;2.00;;
42518;SDS011;28147;47.520;18.920;2023-08-01T09:21:45;5.15;;;2.00;;
42518;SDS011;28147;47.520;18.920;2023-08-01T09:24:12;5.72;;;2.20;;
42518;SDS011;28147;47.520;18.920;2023-08-01T09:26:39;3.78;;;1.83;;
42518;SDS011;28147;47.520;18.920;2023-08-01T09:29:05;3.45;;;1.67;;
42518;SDS011;28147;47.520;18.920;2023-08-01T09:31:33;4.75;;;1.95;;
42518;SDS011;28147;47.520;18.920;2023-08-01T09:34:00;4.30;;;2.08;;
42518;SDS011;28147;47.520;18.920;2023-08-01T09:36:26;4.45;;;1.65;;
42518;SDS011;28147;47.520;18.920;2023-08-01T09:38:57;4.20;;;1.70;;
42518;SDS011;28147;47.520;18.920;2023-08-01T09:41:23;4.90;;;2.30;;
42518;SDS011;28147;47.520;18.920;2023-08-01T09:43:49;3.15;;;1.63;;
42518;SDS011;28147;47.520;18.920;2023-08-01T09:46:15;5.53;;;2.05;;
42518;SDS011;28147;47.520;18.920;2023-08-01T09:48:41;4.20;;;1.90;;
42518;SDS011;28147;47.520;18.920;2023-08-01T09:51:10;5.18;;;1.92;;
42518;SDS011;28147;47.520;18.920;2023-08-01T09:53:50;3.22;;;1.67;;
42518;SDS011;28147;47.520;18.920;2023-08-01T09:56:19;3.85;;;2.00;;
42518;SDS011;28147;47.520;18.920;2023-08-01T09:58:46;4.50;;;2.30;;
42518;SDS011;28147;47.520;18.920;2023-08-01T10:01:15;3.60;;;1.80;;
42518;SDS011;28147;47.520;18.920;2023-08-01T10:03:44;2.97;;;1.55;;
42518;SDS011;28147;47.520;18.920;2023-08-01T10:06:14;3.83;;;2.00;;
42518;SDS011;28147;47.520;18.920;2023-08-01T10:08:44;3.72;;;1.95;;
42518;SDS011;28147;47.520;18.920;2023-08-01T10:11:11;3.45;;;1.73;;
42518;SDS011;28147;47.520;18.920;2023-08-01T10:13:38;4.13;;;1.70;;
42518;SDS011;28147;47.520;18.920;2023-08-01T10:16:03;2.85;;;1.65;;
42518;SDS011;28147;47.520;18.920;2023-08-01T10:18:30;3.78;;;1.83;;
42518;SDS011;28147;47.520;18.920;2023-08-01T10:20:57;3.75;;;1.95;;
42518;SDS011;28147;47.520;18.920;2023-08-01T10:23:23;2.50;;;1.38;;
42518;SDS011;28147;47.520;18.920;2023-08-01T10:25:50;3.35;;;1.35;;
42518;SDS011;28147;47.520;18.920;2023-08-01T10:28:16;3.25;;;1.58;;
42518;SDS011;28147;47.520;18.920;2023-08-01T10:30:41;3.35;;;1.40;;
42518;SDS011;28147;47.520;18.920;2023-08-01T10:33:07;5.25;;;2.20;;
42518;SDS011;28147;47.520;18.920;2023-08-01T10:35:38;2.70;;;1.60;;
42518;SDS011;28147;47.520;18.920;2023-08-01T10:38:09;3.17;;;1.60;;
42518;SDS011;28147;47.520;18.920;2023-08-01T10:40:37;5.53;;;1.85;;
42518;SDS011;28147;47.520;18.920;2023-08-01T10:43:04;3.13;;;1.70;;
42518;SDS011;28147;47.520;18.920;2023-08-01T10:45:30;2.85;;;1.45;;
42518;SDS011;28147;47.520;18.920;2023-08-01T10:48:09;2.75;;;1.70;;
42518;SDS011;28147;47.520;18.920;2023-08-01T10:50:35;3.65;;;1.98;;
42518;SDS011;28147;47.520;18.920;2023-08-01T10:53:02;3.13;;;1.58;;
42518;SDS011;28147;47.520;18.920;2023-08-01T10:55:42;3.30;;;1.70;;
42518;SDS011;28147;47.520;18.920;2023-08-01T10:58:09;4.20;;;2.05;;
42518;SDS011;28147;47.520;18.920;2023-08-01T11:00:34;2.53;;;1.40;;
42518;SDS011;28147;47.520;18.920;2023-08-01T11:02:59;2.88;;;1.83;;
42518;SDS011;28147;47.520;18.920;2023-08-01T11:05:25;2.78;;;1.30;;
42518;SDS011;28147;47.520;18.920;2023-08-01T11:07:56;2.78;;;1.40;;
42518;SDS011;28147;47.520;18.920;2023-08-01T11:10:26;2.55;;;1.23;;
42518;SDS011;28147;47.520;18.920;2023-08-01T11:12:56;3.75;;;1.85;;
42518;SDS011;28147;47.520;18.920;2023-08-01T11:15:22;3.35;;;1.30;;
42518;SDS011;28147;47.520;18.920;2023-08-01T11:17:49;3.15;;;1.67;;
42518;SDS011;28147;47.520;18.920;2023-08-01T11:20:19;2.38;;;1.58;;
42518;SDS011;28147;47.520;18.920;2023-08-01T11:22:50;3.33;;;1.60;;
42518;SDS011;28147;47.520;18.920;2023-08-01T11:25:34;3.10;;;1.60;;
42518;SDS011;28147;47.520;18.920;2023-08-01T11:28:06;6.28;;;1.83;;
42518;SDS011;28147;47.520;18.920;2023-08-01T11:30:33;3.95;;;2.22;;
42518;SDS011;28147;47.520;18.920;2023-08-01T11:32:59;2.65;;;1.55;;
42518;SDS011;28147;47.520;18.920;2023-08-01T11:35:25;3.53;;;1.63;;
42518;SDS011;28147;47.520;18.920;2023-08-01T11:37:51;3.30;;;1.40;;
42518;SDS011;28147;47.520;18.920;2023-08-01T11:40:17;3.25;;;1.58;;
42518;SDS011;28147;47.520;18.920;2023-08-01T11:42:48;3.47;;;1.60;;
42518;SDS011;28147;47.520;18.920;2023-08-01T11:45:16;2.22;;;1.35;;
42518;SDS011;28147;47.520;18.920;2023-08-01T11:47:45;3.30;;;1.50;;
42518;SDS011;28147;47.520;18.920;2023-08-01T11:52:37;3.60;;;1.30;;
42518;SDS011;28147;47.520;18.920;2023-08-01T11:55:02;3.63;;;1.75;;
42518;SDS011;28147;47.520;18.920;2023-08-01T11:57:28;2.92;;;1.40;;
42518;SDS011;28147;47.520;18.920;2023-08-01T11:59:54;2.45;;;1.33;;
42518;SDS011;28147;47.520;18.920;2023-08-01T12:02:24;4.05;;;1.65;;
42518;SDS011;28147;47.520;18.920;2023-08-01T12:04:50;4.28;;;1.60;;
42518;SDS011;28147;47.520;18.920;2023-08-01T12:07:17;2.55;;;1.55;;
42518;SDS011;28147;47.520;18.920;2023-08-01T12:09:43;2.80;;;1.40;;
42518;SDS011;28147;47.520;18.920;2023-08-01T12:12:29;3.67;;;1.80;;
42518;SDS011;28147;47.520;18.920;2023-08-01T12:14:55;3.45;;;1.52;;
42518;SDS011;28147;47.520;18.920;2023-08-01T12:17:25;5.15;;;1.67;;
42518;SDS011;28147;47.520;18.920;2023-08-01T12:19:50;4.72;;;1.75;;
42518;SDS011;28147;47.520;18.920;2023-08-01T12:22:16;2.88;;;1.90;;
42518;SDS011;28147;47.520;18.920;2023-08-01T12:24:41;4.32;;;2.53;;
42518;SDS011;28147;47.520;18.920;2023-08-01T12:27:07;5.40;;;1.67;;
42518;SDS011;28147;47.520;18.920;2023-08-01T12:29:33;4.47;;;1.88;;
42518;SDS011;28147;47.520;18.920;2023-08-01T12:31:58;2.80;;;1.60;;
42518;SDS011;28147;47.520;18.920;2023-08-01T12:34:24;3.65;;;1.30;;
42518;SDS011;28147;47.520;18.920;2023-08-01T12:36:49;2.80;;;1.38;;
42518;SDS011;28147;47.520;18.920;2023-08-01T12:39:15;3.13;;;1.80;;
42518;SDS011;28147;47.520;18.920;2023-08-01T12:41:40;2.45;;;1.52;;
42518;SDS011;28147;47.520;18.920;2023-08-01T12:44:05;2.60;;;1.38;;
42518;SDS011;28147;47.520;18.920;2023-08-01T12:46:31;3.00;;;1.58;;
42518;SDS011;28147;47.520;18.920;2023-08-01T12:48:56;5.18;;;1.95;;
42518;SDS011;28147;47.520;18.920;2023-08-01T12:51:22;3.10;;;1.70;;
42518;SDS011;28147;47.520;18.920;2023-08-01T12:53:47;2.63;;;1.50;;
42518;SDS011;28147;47.520;18.920;2023-08-01T12:56:13;6.68;;;1.60;;
42518;SDS011;28147;47.520;18.920;2023-08-01T12:58:38;2.28;;;1.45;;
42518;SDS011;28147;47.520;18.920;2023-08-01T13:01:04;4.20;;;1.38;;
42518;SDS011;28147;47.520;18.920;2023-08-01T13:03:29;2.38;;;1.40;;
42518;SDS011;28147;47.520;18.920;2023-08-01T13:05:54;2.10;;;1.13;;
42518;SDS011;28147;47.520;18.920;2023-08-01T13:08:22;3.40;;;1.52;;
42518;SDS011;28147;47.520;18.920;2023-08-01T13:10:48;2.60;;;1.48;;
42518;SDS011;28147;47.520;18.920;2023-08-01T13:13:14;4.63;;;1.52;;
42518;SDS011;28147;47.520;18.920;2023-08-01T13:15:41;2.25;;;1.08;;
42518;SDS011;28147;47.520;18.920;2023-08-01T13:18:06;4.72;;;1.58;;
42518;SDS011;28147;47.520;18.920;2023-08-01T13:20:31;2.08;;;1.27;;
42518;SDS011;28147;47.520;18.920;2023-08-01T13:22:57;3.15;;;1.30;;
42518;SDS011;28147;47.520;18.920;2023-08-01T13:25:22;2.78;;;1.45;;
42518;SDS011;28147;47.520;18.920;2023-08-01T13:27:48;2.20;;;1.13;;
42518;SDS011;28147;47.520;18.920;2023-08-01T13:30:13;2.55;;;1.30;;
42518;SDS011;28147;47.520;18.920;2023-08-01T13:32:39;3.08;;;1.45;;
42518;SDS011;28147;47.520;18.920;2023-08-01T13:35:06;2.40;;;1.08;;
42518;SDS011;28147;47.520;18.920;2023-08-01T13:37:31;2.05;;;1.20;;
42518;SDS011;28147;47.520;18.920;2023-08-01T13:39:57;2.35;;;1.20;;
42518;SDS011;28147;47.520;18.920;2023-08-01T13:42:23;6.22;;;1.88;;
42518;SDS011;28147;47.520;18.920;2023-08-01T13:44:48;4.25;;;1.45;;
42518;SDS011;28147;47.520;18.920;2023-08-01T13:47:14;5.65;;;2.08;;
42518;SDS011;28147;47.520;18.920;2023-08-01T13:49:39;2.85;;;1.33;;
42518;SDS011;28147;47.520;18.920;2023-08-01T13:52:05;4.22;;;1.45;;
42518;SDS011;28147;47.520;18.920;2023-08-01T13:54:31;2.28;;;1.30;;
42518;SDS011;28147;47.520;18.920;2023-08-01T13:56:56;1.98;;;1.13;;
42518;SDS011;28147;47.520;18.920;2023-08-01T13:59:22;1.70;;;1.10;;
42518;SDS011;28147;47.520;18.920;2023-08-01T14:01:48;2.50;;;1.30;;
42518;SDS011;28147;47.520;18.920;2023-08-01T14:04:13;3.08;;;1.15;;
42518;SDS011;28147;47.520;18.920;2023-08-01T14:06:42;1.80;;;1.13;;
42518;SDS011;28147;47.520;18.920;2023-08-01T14:09:08;2.15;;;1.05;;
42518;SDS011;28147;47.520;18.920;2023-08-01T14:11:34;1.98;;;1.17;;
42518;SDS011;28147;47.520;18.920;2023-08-01T14:14:00;3.25;;;1.13;;
42518;SDS011;28147;47.520;18.920;2023-08-01T14:16:25;2.75;;;1.10;;
42518;SDS011;28147;47.520;18.920;2023-08-01T14:18:50;3.03;;;1.15;;
42518;SDS011;28147;47.520;18.920;2023-08-01T14:21:16;2.38;;;1.10;;
42518;SDS011;28147;47.520;18.920;2023-08-01T14:23:41;4.00;;;1.20;;
42518;SDS011;28147;47.520;18.920;2023-08-01T14:26:07;1.85;;;0.90;;
42518;SDS011;28147;47.520;18.920;2023-08-01T14:28:32;4.47;;;1.30;;
42518;SDS011;28147;47.520;18.920;2023-08-01T14:31:01;3.00;;;1.25;;
42518;SDS011;28147;47.520;18.920;2023-08-01T14:33:28;2.90;;;1.23;;